Data for 09/25/2015

Time Sea-Level Adjusted Pressure Absolute Pressure Temperature Relative Humidity Dew Point   
(mb) (inHg) (mb) (inHg) (C) (F) (%) (C) (F)
00:05 1023 30.21 852 25.16 16.3 61.4 26 -3 26.6
00:10 1023 30.21 852 25.16 16.4 61.5 26 -3.1 26.4
00:15 1023 30.21 852 25.16 16.5 61.8 25 -3.2 26.2
00:20 1023 30.21 852 25.16 16.7 62 25 -3.4 26
00:25 1023 30.21 852 25.16 16.9 62.4 24 -3.5 25.7
00:30 1023 30.21 852 25.16 16.9 62.3 24 -3.6 25.5
00:35 1023 30.21 852 25.16 16.7 62.1 25 -3.4 25.9
00:40 1023 30.21 852 25.16 16.6 62 24 -3.7 25.4
00:45 1023 30.21 852 25.16 16.7 62 25 -3.6 25.6
00:50 1023 30.21 852 25.16 16.6 61.8 24 -3.7 25.3
00:55 1023 30.21 852 25.16 16.3 61.4 25 -3.4 25.9
01:00 1023 30.21 852 25.16 16 60.9 26 -3.6 25.6
01:05 1023 30.21 852 25.16 16.2 61.2 25 -3.8 25.1
01:10 1023 30.21 852 25.16 16.3 61.3 25 -3.7 25.4
01:15 1023 30.21 852 25.16 16.1 61 25 -3.8 25.2
01:20 1023 30.21 852 25.16 16.3 61.4 25 -3.7 25.3
01:25 1023 30.21 852 25.16 16.3 61.3 25 -3.7 25.3
01:30 1023 30.21 852 25.16 16.3 61.3 25 -3.9 25
01:35 1023 30.21 852 25.16 16.2 61.2 25 -3.8 25.2
01:40 1023 30.21 852 25.16 16.2 61.1 25 -3.8 25.2
01:45 1023 30.21 852 25.16 16.1 61 25 -3.8 25.1
01:50 1023 30.21 852 25.16 15.9 60.7 25 -3.7 25.3
01:55 1023 30.21 852 25.16 15.9 60.5 25 -3.9 24.9
02:00 1023 30.21 852 25.16 15.9 60.7 26 -3.7 25.3
02:05 1023 30.21 852 25.16 15.9 60.6 26 -3.6 25.5
02:10 1023 30.21 852 25.16 15.6 60 27 -3.2 26.2
02:15 1023 30.21 852 25.16 15.4 59.8 27 -3.2 26.2
02:20 1023 30.21 852 25.16 15.5 59.8 27 -3.5 25.7
02:25 1023 30.21 852 25.16 15.4 59.7 27 -3.5 25.6
02:30 1022 30.18 852 25.16 15.4 59.6 27 -3.3 26
02:35 1022 30.18 852 25.16 15.1 59.2 28 -3.2 26.3
02:40 1022 30.18 852 25.16 15.1 59.2 27 -3.5 25.6
02:45 1022 30.18 852 25.16 15.3 59.5 27 -3.4 25.9
02:50 1022 30.18 852 25.16 15.3 59.5 27 -3.5 25.6
02:55 1022 30.18 852 25.16 15.5 59.9 27 -3.4 25.9
03:00 1022 30.18 852 25.16 15.4 59.8 27 -3.2 26.3
03:05 1022 30.18 852 25.16 15.3 59.5 28 -2.9 26.7
03:10 1022 30.18 852 25.16 15.1 59.2 28 -3.1 26.4
03:15 1022 30.18 852 25.16 15.1 59.1 28 -3.3 26
03:20 1022 30.18 852 25.16 15.1 59.2 28 -2.9 26.7
03:25 1022 30.18 852 25.16 15.1 59.2 28 -3.1 26.5
03:30 1022 30.18 852 25.16 15 58.9 29 -2.8 26.9
03:35 1022 30.18 852 25.16 14.9 58.8 28 -3.5 25.8
03:40 1022 30.18 852 25.16 15.2 59.3 28 -3.1 26.5
03:45 1022 30.18 852 25.16 15.4 59.8 26 -3.8 25.2
03:50 1022 30.18 852 25.16 15.7 60.2 27 -3.1 26.4
03:55 1022 30.18 851 25.13 15.4 59.7 28 -2.9 26.8
04:00 1022 30.18 852 25.16 15.4 59.7 28 -2.9 26.7
04:05 1022 30.18 852 25.16 15.7 60.2 26 -3.5 25.7
04:10 1022 30.18 851 25.13 15.9 60.5 26 -3.3 26
04:15 1022 30.18 851 25.13 15.7 60.3 27 -3.2 26.2
04:20 1022 30.18 851 25.13 15.5 59.8 28 -2.9 26.8
04:25 1022 30.18 851 25.13 15.5 59.9 29 -2.4 27.6
04:30 1022 30.18 851 25.13 15.8 60.4 26 -3.4 25.9
04:35 1022 30.18 851 25.13 16.2 61.1 26 -3.1 26.4
04:40 1022 30.18 851 25.13 16.2 61.1 26 -3.4 25.9
04:45 1022 30.18 851 25.13 16.3 61.3 26 -3 26.6
04:50 1022 30.18 851 25.13 15.7 60.3 28 -2.5 27.5
04:55 1022 30.18 851 25.13 15.4 59.7 29 -2.4 27.6
05:00 1022 30.18 851 25.13 15.3 59.5 28 -2.8 26.9
05:05 1022 30.18 851 25.13 15.3 59.5 30 -1.9 28.6
05:10 1022 30.18 851 25.13 15.1 59.3 30 -2.4 27.7
05:15 1022 30.18 851 25.13 15.2 59.3 31 -1.8 28.7
05:20 1022 30.18 851 25.13 14.9 58.9 29 -2.9 26.8
05:25 1022 30.18 851 25.13 15.3 59.5 28 -3.2 26.3
05:30 1022 30.18 851 25.13 15.8 60.4 28 -2.8 27
05:35 1022 30.18 851 25.13 15.9 60.7 28 -2.7 27.2
05:40 1022 30.18 851 25.13 15.8 60.4 28 -2.5 27.6
05:45 1022 30.18 851 25.13 15.7 60.2 29 -2.4 27.6
05:50 1022 30.18 851 25.13 15.5 60 30 -1.9 28.5
05:55 1022 30.18 851 25.13 15.3 59.6 30 -1.9 28.6
06:00 1022 30.18 851 25.13 14.9 58.7 33 -1.3 29.7
06:05 1022 30.18 851 25.13 14.5 58 34 -1.1 30
06:10 1022 30.18 851 25.13 14.1 57.4 33 -1.9 28.7
06:15 1022 30.18 852 25.16 14.4 58 32 -1.9 28.5
06:20 1022 30.18 852 25.16 14.5 58.1 34 -1.2 29.8
06:25 1022 30.18 852 25.16 14.4 57.9 31 -2.5 27.5
06:30 1022 30.18 852 25.16 14.8 58.6 32 -1.8 28.7
06:35 1022 30.18 852 25.16 14.7 58.5 34 -1 30.3
06:40 1022 30.18 852 25.16 14.7 58.4 36 -0.1 31.8
06:45 1022 30.18 852 25.16 14.2 57.6 39 0.4 32.7
06:50 1023 30.21 852 25.16 13.9 56.9 41 0.9 33.5
06:55 1022 30.18 852 25.16 13.6 56.5 38 -0.4 31.3
07:00 1022 30.18 852 25.16 14.1 57.4 38 0.1 32.2
07:05 1022 30.18 852 25.16 14 57.1 37 -0.3 31.5
07:10 1022 30.18 852 25.16 14.4 58 37 0.1 32.2
07:15 1022 30.18 852 25.16 14.7 58.5 37 0.1 32.2
07:20 1022 30.18 852 25.16 14.8 58.6 38 0.6 33.1
07:25 1022 30.18 852 25.16 14.7 58.5 33 -1.2 29.8
07:30 1022 30.18 852 25.16 15.4 59.8 33 -0.8 30.6
07:35 1022 30.18 852 25.16 15.9 60.5 32 -0.6 31
07:40 1022 30.18 852 25.16 16.1 60.9 32 -0.6 30.9
07:45 1022 30.18 852 25.16 16.4 61.5 32 -0.2 31.7
07:50 1022 30.18 852 25.16 16.7 62 32 -0.2 31.6
07:55 1022 30.18 852 25.16 16.8 62.2 36 2 35.5
08:00 1022 30.18 852 25.16 17.1 62.7 36 2.2 35.9
08:05 1022 30.18 852 25.16 17.4 63.3 33 1.2 34.2
08:10 1022 30.18 852 25.16 17.9 64.2 35 2.4 36.2
08:15 1022 30.18 852 25.16 18.9 65.9 33 2.2 36
08:20 1022 30.18 852 25.16 19.6 67.2 30 1.9 35.3
08:25 1022 30.18 852 25.16 20 68 29 1.7 35.1
08:30 1022 30.18 852 25.16 20.2 68.4 28 1.2 34.1
08:35 1022 30.18 852 25.16 20.7 69.3 26 0.9 33.6
08:40 1022 30.18 852 25.16 20.7 69.3 26 0.6 33.1
08:45 1022 30.18 852 25.16 20.9 69.5 23 -0.6 30.9
08:50 1022 30.18 852 25.16 21.1 70 27 1.7 35.1
08:55 1022 30.18 851 25.13 21.4 70.4 28 2.3 36.1
09:00 1022 30.18 851 25.13 20.9 69.6 28 1.9 35.4
09:05 1022 30.18 851 25.13 21.1 70 31 3.3 37.9
09:10 1022 30.18 851 25.13 21.7 71.1 28 2.7 36.8
09:15 1022 30.18 851 25.13 22.3 72.1 28 3.1 37.6
09:20 1022 30.18 851 25.13 21.1 70 29 2.6 36.7
09:25 1022 30.18 851 25.13 21 69.8 29 2.3 36.1
09:30 1022 30.18 851 25.13 21 69.9 28 2.2 35.9
09:35 1022 30.18 851 25.13 21.2 70.2 28 2.2 36
09:40 1022 30.18 851 25.13 22.1 71.9 26 2 35.7
09:45 1022 30.18 851 25.13 22.6 72.7 26 2.3 36.1
09:50 1022 30.18 851 25.13 22.8 73.1 25 2.1 35.8
09:55 1022 30.18 851 25.13 22.8 73 23 0.8 33.4
10:00 1022 30.18 851 25.13 23.2 73.8 23 1.2 34.2
10:05 1022 30.18 851 25.13 23.6 74.4 21 0.1 32.2
10:10 1022 30.18 851 25.13 23.9 75.1 21 0.5 32.8
10:15 1022 30.18 851 25.13 23.8 74.8 22 0.9 33.6
10:20 1022 30.18 851 25.13 24.1 75.4 21 0.9 33.7
10:25 1022 30.18 851 25.13 23.9 74.9 23 1.5 34.8
10:30 1022 30.18 851 25.13 23.9 75 23 1.4 34.6
10:35 1022 30.18 851 25.13 23.6 74.4 22 0.8 33.5
10:40 1021 30.15 851 25.13 22.9 73.3 25 1.8 35.3
10:45 1021 30.15 851 25.13 22.9 73.3 24 1.4 34.5
10:50 1021 30.15 851 25.13 23.1 73.6 23 0.9 33.7
10:55 1021 30.15 851 25.13 24.1 75.4 22 1.6 34.8
11:00 1021 30.15 850 25.1 23.9 74.9 23 1.6 34.8
11:05 1021 30.15 850 25.1 24 75.1 22 1.3 34.4
11:10 1021 30.15 850 25.1 24.6 76.4 22 2 35.5
11:15 1021 30.15 850 25.1 24.3 75.8 23 2 35.6
11:20 1021 30.15 850 25.1 24 75.2 23 2 35.6
11:25 1021 30.15 850 25.1 24.2 75.6 23 1.9 35.5
11:30 1021 30.15 850 25.1 25.1 77.2 23 2.6 36.6
11:35 1021 30.15 850 25.1 25.4 77.7 22 2.5 36.4
11:40 1021 30.15 850 25.1 26 78.8 22 2.7 36.9
11:45 1021 30.15 850 25.1 26.7 80.1 23 4.1 39.3
11:50 1021 30.15 850 25.1 26.7 80.1 23 4.4 39.9
11:55 1021 30.15 850 25.1 26.9 80.4 24 4.9 40.9
12:00 1021 30.15 850 25.1 26.9 80.5 23 4.2 39.6
12:05 1021 30.15 850 25.1 26.8 80.2 23 4.4 39.9
12:10 1021 30.15 850 25.1 27.2 80.9 22 3.9 39.1
12:15 1021 30.15 850 25.1 27.7 81.9 22 4.2 39.6
12:20 1021 30.15 850 25.1 27.4 81.2 21 3.7 38.6
12:25 1021 30.15 850 25.1 27 80.5 22 3.9 39
12:30 1021 30.15 850 25.1 27.6 81.6 22 4.2 39.6
12:35 1020 30.12 850 25.1 27.5 81.6 24 5.3 41.5
12:40 1020 30.12 850 25.1 28.1 82.6 21 4.3 39.7
12:45 1020 30.12 850 25.1 28.1 82.5 23 5.1 41.1
12:50 1020 30.12 849 25.07 27.7 81.8 21 4 39.2
12:55 1020 30.12 849 25.07 28.4 83.1 20 3.8 38.9
13:00 1020 30.12 849 25.07 28.5 83.2 19 2.8 37.1
13:05 1020 30.12 849 25.07 28.9 84 17 1.5 34.6
13:10 1020 30.12 849 25.07 28.5 83.2 15 -0 31.9
13:15 1020 30.12 849 25.07 28.6 83.5 17 1.3 34.4
13:20 1020 30.12 849 25.07 29 84.1 17 1.4 34.6
13:25 1020 30.12 849 25.07 29.4 85 17 1.9 35.4
13:30 1020 30.12 849 25.07 29.5 85 17 2.4 36.3
13:35 1020 30.12 849 25.07 28.8 83.9 18 2.3 36.1
13:40 1020 30.12 849 25.07 29.6 85.2 17 1.9 35.4
13:45 1020 30.12 849 25.07 30 86.1 14 0.3 32.5
13:50 1019 30.09 849 25.07 29.3 84.8 15 0.4 32.7
13:55 1019 30.09 849 25.07 29.4 85 14 -0.1 31.8
14:00 1019 30.09 848 25.04 30.6 87 14 0.7 33.2
14:05 1019 30.09 848 25.04 30.3 86.5 13 -1.2 29.8
14:10 1019 30.09 848 25.04 30.5 86.8 13 -0.3 31.4
14:15 1019 30.09 848 25.04 30.5 86.9 13 -0.4 31.3
14:20 1019 30.09 848 25.04 30.1 86.2 13 -0.6 30.9
14:25 1019 30.09 848 25.04 30.9 87.7 13 -0.8 30.6
14:30 1019 30.09 848 25.04 31.3 88.3 13 -0.1 31.9
14:35 1019 30.09 848 25.04 31.4 88.6 13 -0.3 31.5
14:40 1019 30.09 848 25.04 31.4 88.6 13 0.2 32.4
14:45 1019 30.09 848 25.04 31.5 88.7 13 -0 31.9
14:50 1019 30.09 848 25.04 30.7 87.2 11 -2.6 27.4
14:55 1019 30.09 848 25.04 30.5 86.9 11 -3.3 26.1
15:00 1019 30.09 848 25.04 30.3 86.6 12 -2.1 28.2
15:05 1019 30.09 848 25.04 30.2 86.4 12 -2.1 28.2
15:10 1018 30.06 848 25.04 30 86 12 -1.9 28.5
15:15 1018 30.06 848 25.04 29.8 85.6 12 -2.4 27.6
15:20 1018 30.06 848 25.04 29.6 85.3 12 -2.7 27.2
15:25 1018 30.06 848 25.04 29.6 85.3 12 -2 28.4
15:30 1018 30.06 848 25.04 29.7 85.4 12 -2.7 27.1
15:35 1018 30.06 847 25.01 30 85.9 12 -2.1 28.2
15:40 1018 30.06 847 25.01 30.3 86.5 12 -2.3 27.8
15:45 1018 30.06 847 25.01 30.5 86.9 11 -3.5 25.7
15:50 1018 30.06 847 25.01 30.7 87.3 11 -3.1 26.4
15:55 1018 30.06 847 25.01 30.9 87.6 12 -1.9 28.6
16:00 1018 30.06 847 25.01 30.5 86.9 12 -2 28.5
16:05 1018 30.06 847 25.01 29.9 85.9 12 -2.8 27
16:10 1018 30.06 847 25.01 30 85.9 12 -2.5 27.5
16:15 1018 30.06 847 25.01 29.5 85.2 12 -3 26.5
16:20 1018 30.06 847 25.01 29.2 84.6 12 -2.7 27.1
16:25 1018 30.06 847 25.01 29.2 84.5 13 -2.1 28.2
16:30 1018 30.06 847 25.01 29.1 84.3 13 -2.1 28.2
16:35 1018 30.06 847 25.01 29 84.2 13 -2.2 28.1
16:40 1018 30.06 847 25.01 28.9 84 13 -2.5 27.6
16:45 1018 30.06 847 25.01 29 84.3 12 -3.3 26
16:50 1018 30.06 847 25.01 29.4 84.9 12 -3 26.6
16:55 1018 30.06 847 25.01 29.4 85 12 -2.2 28
17:00 1018 30.06 847 25.01 29.3 84.7 11 -3.4 25.8
17:05 1018 30.06 847 25.01 29.3 84.7 11 -3.9 25
17:10 1018 30.06 847 25.01 29.2 84.5 11 -4.1 24.7
17:15 1018 30.06 847 25.01 29.1 84.3 12 -3.2 26.2
17:20 1018 30.06 847 25.01 28.9 84 11 -4 24.9
17:25 1018 30.06 847 25.01 28.8 83.9 12 -3.5 25.6
17:30 1018 30.06 847 25.01 28.5 83.4 12 -2.9 26.7
17:35 1018 30.06 847 25.01 28.1 82.6 12 -3.4 25.9
17:40 1018 30.06 847 25.01 27.9 82.3 12 -4 24.9
17:45 1018 30.06 847 25.01 28 82.4 13 -2.9 26.7
17:50 1018 30.06 847 25.01 27.6 81.7 13 -3.1 26.4
17:55 1018 30.06 847 25.01 27.3 81.1 13 -2.8 26.9
18:00 1018 30.06 847 25.01 26.9 80.4 14 -2.9 26.9
18:05 1018 30.06 847 25.01 26.8 80.2 13 -3.3 26.1
18:10 1018 30.06 847 25.01 26.7 80.1 14 -3.2 26.3
18:15 1018 30.06 847 25.01 26.4 79.5 14 -3.2 26.2
18:20 1018 30.06 847 25.01 26.1 79 14 -3.3 26
18:25 1018 30.06 847 25.01 25.9 78.6 14 -3.1 26.4
18:30 1018 30.06 847 25.01 25.9 78.5 14 -3.3 26
18:35 1018 30.06 847 25.01 25.8 78.4 14 -3.6 25.6
18:40 1018 30.06 847 25.01 25.9 78.7 14 -3.5 25.8
18:45 1018 30.06 847 25.01 25.8 78.4 14 -3.2 26.3
18:50 1018 30.06 847 25.01 25.7 78.2 14 -3.2 26.2
18:55 1018 30.06 847 25.01 25.5 77.9 15 -3.2 26.3
19:00 1018 30.06 847 25.01 25.3 77.6 14 -3.5 25.7
19:05 1018 30.06 847 25.01 25.5 78 14 -3.3 26
19:10 1018 30.06 847 25.01 25.4 77.8 15 -2.9 26.7
19:15 1018 30.06 847 25.01 24.7 76.5 17 -1.8 28.8
19:20 1018 30.06 847 25.01 24.1 75.4 18 -1.8 28.8
19:25 1018 30.06 847 25.01 23.9 75 19 -0.8 30.5
19:30 1018 30.06 847 25.01 23.5 74.3 20 -0.8 30.5
19:35 1018 30.06 847 25.01 23.3 74 19 -1.1 30.1
19:40 1018 30.06 847 25.01 23.4 74.1 20 -0.7 30.7
19:45 1018 30.06 847 25.01 23.3 73.9 20 -1 30.2
19:50 1018 30.06 847 25.01 22.9 73.2 21 -0.2 31.7
19:55 1018 30.06 847 25.01 22.5 72.5 21 -0.7 30.7
20:00 1018 30.06 847 25.01 22.3 72.1 22 -0.3 31.4
20:05 1018 30.06 848 25.04 22 71.7 22 -0.3 31.5
20:10 1018 30.06 847 25.01 21.8 71.3 22 -0.6 30.9
20:15 1018 30.06 847 25.01 21.7 71 24 0.5 32.9
20:20 1018 30.06 847 25.01 21.4 70.5 24 0.2 32.4
20:25 1018 30.06 847 25.01 21.4 70.5 23 -0.6 30.9
20:30 1018 30.06 847 25.01 21.3 70.3 24 -0.1 31.8
20:35 1018 30.06 847 25.01 21.4 70.4 24 0.3 32.5
20:40 1018 30.06 847 25.01 21.8 71.2 22 -0.5 31.1
20:45 1018 30.06 847 25.01 21.9 71.3 22 -0.3 31.4
20:50 1018 30.06 847 25.01 22.1 71.7 22 -0.5 31.1
20:55 1018 30.06 847 25.01 22.4 72.2 21 -0.8 30.6
21:00 1018 30.06 847 25.01 22.4 72.2 22 -0.5 31.1
21:05 1018 30.06 847 25.01 22.4 72.4 21 -0.8 30.6
21:10 1018 30.06 847 25.01 22.7 72.9 20 -0.9 30.3
21:15 1018 30.06 847 25.01 23 73.4 20 -1.1 30.1
21:20 1018 30.06 847 25.01 23.2 73.8 20 -0.8 30.5
21:25 1018 30.06 847 25.01 23.2 73.7 20 -0.5 31.1
21:30 1018 30.06 847 25.01 23.1 73.5 21 -0.5 31
21:35 1018 30.06 847 25.01 23.1 73.5 21 -0.5 31
21:40 1018 30.06 847 25.01 23.1 73.5 20 -0.8 30.5
21:45 1018 30.06 847 25.01 23.1 73.5 20 -0.6 30.9
21:50 1018 30.06 847 25.01 23.3 74 20 -0.4 31.3
21:55 1018 30.06 847 25.01 23.3 73.9 20 -0.8 30.6
22:00 1018 30.06 847 25.01 23.5 74.3 20 -0.8 30.6
22:05 1018 30.06 847 25.01 23.7 74.7 19 -1.1 30
22:10 1018 30.06 847 25.01 24 75.3 18 -1.2 29.9
22:15 1018 30.06 847 25.01 24.1 75.4 19 -0.9 30.4
22:20 1018 30.06 847 25.01 23.9 75.1 19 -1 30.2
22:25 1018 30.06 847 25.01 23.9 75.1 19 -1 30.2
22:30 1018 30.06 847 25.01 23.8 74.9 19 -0.9 30.4
22:35 1018 30.06 847 25.01 23.6 74.5 20 -0.6 30.8
22:40 1018 30.06 847 25.01 23.5 74.2 20 -0.7 30.8
22:45 1018 30.06 847 25.01 23.3 73.9 20 -0.4 31.3
22:50 1018 30.06 847 25.01 23.2 73.7 22 0.6 33
22:55 1018 30.06 847 25.01 22.9 73.2 21 -0.4 31.3
23:00 1018 30.06 847 25.01 22.9 73.2 21 -0.6 31
23:05 1018 30.06 847 25.01 23.2 73.7 20 -0.5 31.1
23:10 1018 30.06 847 25.01 23.2 73.8 21 -0 31.9
23:15 1018 30.06 847 25.01 23.3 73.9 21 -0.2 31.6
23:20 1018 30.06 847 25.01 23.2 73.8 20 -0.5 31.2
23:25 1018 30.06 847 25.01 23.3 73.9 20 -0.5 31.1
23:30 1018 30.06 847 25.01 23.3 74 21 -0.2 31.7
23:35 1018 30.06 847 25.01 23.1 73.6 21 -0.4 31.3
23:40 1018 30.06 847 25.01 23.2 73.7 23 0.9 33.6
23:45 1018 30.06 847 25.01 21.2 70.2 27 1.7 35
23:50 1018 30.06 847 25.01 20 67.9 27 0.8 33.4
23:55 1018 30.06 847 25.01 20 67.9 28 0.9 33.5
24:00 1018 30.06 847 25.01 19.6 67.2 29 1 33.9